QTR999 YSSY-YPAD
Flight info
| Callsign | QTR999 |
|---|---|
| Flight time | 1h 40m |
| Altitude | 38000 |
| Route | KADOM H44 MAXEM Q60 KAKLU |
| Aircraft | B77W/H-SDE1E2E3FGHIJ2J3J4J5M1RWXY/LB1D1 |
Departure
| Time | 2026-04-23 09:56 |
|---|---|
| Airport | Sydney Kingsford Smith International Airport (YSSY) |
Arrival
| Time | 2026-04-23 11:37 |
|---|---|
| Airport | Adelaide International Airport (YPAD) |
| Time | Latitude | Longitude | Altitude | Speed | Heading |
|---|---|---|---|---|---|
| 2026-04-23 09:32 | -33.94523 | 151.16996 | 35 ft | 0 kts | 164° |
| 2026-04-23 09:44 | -33.94518 | 151.16994 | 35 ft | 4 kts | 164° |
| 2026-04-23 09:45 | -33.94492 | 151.16987 | 33 ft | 4 kts | 168° |
| 2026-04-23 09:45 | -33.94465 | 151.16981 | 34 ft | 4 kts | 169° |
| 2026-04-23 09:45 | -33.94439 | 151.16974 | 34 ft | 4 kts | 157° |
| 2026-04-23 09:45 | -33.94420 | 151.16958 | 34 ft | 4 kts | 125° |
| 2026-04-23 09:46 | -33.94413 | 151.16932 | 31 ft | 4 kts | 70° |
| 2026-04-23 09:46 | -33.94422 | 151.16906 | 32 ft | 1 kts | 74° |
| 2026-04-23 09:46 | -33.94423 | 151.16900 | 32 ft | 0 kts | 74° |
| 2026-04-23 09:49 | -33.94423 | 151.16901 | 35 ft | 0 kts | 74° |
| 2026-04-23 09:49 | -33.94421 | 151.16908 | 35 ft | 1 kts | 74° |
| 2026-04-23 09:50 | -33.94419 | 151.16920 | 35 ft | 2 kts | 74° |
| 2026-04-23 09:50 | -33.94414 | 151.16942 | 35 ft | 4 kts | 75° |
| 2026-04-23 09:50 | -33.94405 | 151.16980 | 35 ft | 6 kts | 75° |
| 2026-04-23 09:50 | -33.94394 | 151.17035 | 35 ft | 8 kts | 75° |
| 2026-04-23 09:51 | -33.94378 | 151.17104 | 35 ft | 9 kts | 74° |
| 2026-04-23 09:51 | -33.94360 | 151.17184 | 35 ft | 10 kts | 74° |
| 2026-04-23 09:51 | -33.94340 | 151.17266 | 35 ft | 11 kts | 68° |
| 2026-04-23 09:51 | -33.94269 | 151.17300 | 34 ft | 12 kts | 353° |
| 2026-04-23 09:52 | -33.94175 | 151.17278 | 33 ft | 15 kts | 349° |
| 2026-04-23 09:52 | -33.94077 | 151.17254 | 34 ft | 16 kts | 348° |
| 2026-04-23 09:52 | -33.93963 | 151.17225 | 34 ft | 17 kts | 349° |
| 2026-04-23 09:52 | -33.93840 | 151.17192 | 33 ft | 18 kts | 346° |
| 2026-04-23 09:53 | -33.93717 | 151.17156 | 34 ft | 18 kts | 348° |
| 2026-04-23 09:53 | -33.93593 | 151.17127 | 34 ft | 18 kts | 348° |
| 2026-04-23 09:53 | -33.93495 | 151.17102 | 34 ft | 8 kts | 349° |
| 2026-04-23 09:53 | -33.93449 | 151.17125 | 34 ft | 7 kts | 57° |
| 2026-04-23 09:54 | -33.93445 | 151.17139 | 34 ft | 0 kts | 75° |
| 2026-04-23 09:54 | -33.93445 | 151.17140 | 34 ft | 0 kts | 75° |
| 2026-04-23 09:55 | -33.93441 | 151.17154 | 33 ft | 4 kts | 75° |
| 2026-04-23 09:55 | -33.93431 | 151.17199 | 33 ft | 7 kts | 75° |
| 2026-04-23 09:55 | -33.93435 | 151.17269 | 32 ft | 9 kts | 119° |
| 2026-04-23 09:56 | -33.93495 | 151.17305 | 32 ft | 13 kts | 166° |
| 2026-04-23 09:56 | -33.93752 | 151.17369 | 31 ft | 80 kts | 167° |
| 2026-04-23 09:56 | -33.94648 | 151.17607 | 67 ft | 173 kts | 166° |
| 2026-04-23 09:56 | -33.95823 | 151.17902 | 1254 ft | 166 kts | 166° |
| 2026-04-23 09:57 | -33.96939 | 151.18161 | 2378 ft | 170 kts | 174° |
| 2026-04-23 09:57 | -33.98216 | 151.18019 | 2681 ft | 197 kts | 185° |
| 2026-04-23 09:57 | -33.99598 | 151.17412 | 2858 ft | 233 kts | 218° |
| 2026-04-23 09:57 | -34.00492 | 151.15664 | 3290 ft | 261 kts | 258° |
| 2026-04-23 09:58 | -34.00466 | 151.13469 | 4058 ft | 271 kts | 278° |
| 2026-04-23 09:58 | -34.00124 | 151.11175 | 4987 ft | 278 kts | 280° |
| 2026-04-23 09:58 | -33.99788 | 151.08906 | 5955 ft | 280 kts | 278° |
| 2026-04-23 09:58 | -33.99498 | 151.06573 | 6908 ft | 283 kts | 277° |
| 2026-04-23 09:59 | -33.99254 | 151.04201 | 7778 ft | 287 kts | 275° |
| 2026-04-23 09:59 | -33.99033 | 151.01798 | 8660 ft | 291 kts | 275° |
| 2026-04-23 09:59 | -33.98814 | 150.99351 | 9487 ft | 297 kts | 275° |
| 2026-04-23 09:59 | -33.98457 | 150.96892 | 10202 ft | 303 kts | 288° |
| 2026-04-23 10:00 | -33.97568 | 150.94496 | 10556 ft | 327 kts | 296° |
| 2026-04-23 10:00 | -33.96498 | 150.91946 | 10766 ft | 355 kts | 296° |
| 2026-04-23 10:00 | -33.95345 | 150.89213 | 11199 ft | 374 kts | 296° |
| 2026-04-23 10:00 | -33.94158 | 150.86379 | 11975 ft | 384 kts | 296° |
| 2026-04-23 10:01 | -33.92957 | 150.83480 | 12993 ft | 389 kts | 295° |
| 2026-04-23 10:01 | -33.91750 | 150.80539 | 14097 ft | 394 kts | 295° |
| 2026-04-23 10:01 | -33.90531 | 150.77555 | 15080 ft | 400 kts | 295° |
| 2026-04-23 10:01 | -33.89301 | 150.74532 | 16076 ft | 404 kts | 295° |
| 2026-04-23 10:02 | -33.88063 | 150.71488 | 17154 ft | 407 kts | 294° |
| 2026-04-23 10:02 | -33.86814 | 150.68416 | 18165 ft | 411 kts | 294° |
| 2026-04-23 10:02 | -33.85550 | 150.65307 | 19087 ft | 416 kts | 294° |
| 2026-04-23 10:02 | -33.84270 | 150.62166 | 19953 ft | 421 kts | 294° |
| 2026-04-23 10:03 | -33.82978 | 150.58995 | 20832 ft | 424 kts | 294° |
| 2026-04-23 10:03 | -33.81670 | 150.55789 | 21714 ft | 428 kts | 294° |
| 2026-04-23 10:03 | -33.80350 | 150.52558 | 22552 ft | 433 kts | 294° |
| 2026-04-23 10:03 | -33.79014 | 150.49292 | 23383 ft | 437 kts | 294° |
| 2026-04-23 10:04 | -33.77664 | 150.45993 | 24161 ft | 442 kts | 294° |
| 2026-04-23 10:04 | -33.76301 | 150.42667 | 24866 ft | 446 kts | 294° |
| 2026-04-23 10:04 | -33.74928 | 150.39316 | 25555 ft | 449 kts | 294° |
| 2026-04-23 10:04 | -33.73538 | 150.35930 | 26228 ft | 453 kts | 295° |
| 2026-04-23 10:05 | -33.72384 | 150.32768 | 26745 ft | 455 kts | 287° |
| 2026-04-23 10:05 | -33.71652 | 150.29118 | 27315 ft | 457 kts | 276° |
| 2026-04-23 10:05 | -33.71431 | 150.25308 | 27946 ft | 458 kts | 267° |
| 2026-04-23 10:05 | -33.71704 | 150.21489 | 28569 ft | 460 kts | 262° |
| 2026-04-23 10:06 | -33.72080 | 150.17662 | 29150 ft | 464 kts | 261° |
| 2026-04-23 10:06 | -33.72462 | 150.13797 | 29710 ft | 467 kts | 262° |
| 2026-04-23 10:06 | -33.72834 | 150.09905 | 30277 ft | 471 kts | 262° |
| 2026-04-23 10:06 | -33.73194 | 150.05987 | 30756 ft | 474 kts | 262° |
| 2026-04-23 10:07 | -33.73543 | 150.02044 | 31159 ft | 477 kts | 262° |
| 2026-04-23 10:07 | -33.73888 | 149.98058 | 31571 ft | 480 kts | 262° |
| 2026-04-23 10:07 | -33.74227 | 149.94079 | 32105 ft | 479 kts | 262° |
| 2026-04-23 10:07 | -33.74563 | 149.90112 | 32716 ft | 476 kts | 262° |
| 2026-04-23 10:08 | -33.74896 | 149.86169 | 33314 ft | 473 kts | 261° |
| 2026-04-23 10:08 | -33.75228 | 149.82242 | 33878 ft | 472 kts | 261° |
| 2026-04-23 10:08 | -33.75560 | 149.78320 | 34372 ft | 471 kts | 261° |
| 2026-04-23 10:09 | -33.76218 | 149.70493 | 35179 ft | 470 kts | 261° |
| 2026-04-23 10:09 | -33.76545 | 149.66585 | 35593 ft | 470 kts | 261° |
| 2026-04-23 10:09 | -33.76870 | 149.62684 | 35999 ft | 469 kts | 261° |
| 2026-04-23 10:09 | -33.77188 | 149.58838 | 36364 ft | 468 kts | 260° |
| 2026-04-23 10:10 | -33.77507 | 149.54948 | 36766 ft | 467 kts | 260° |
| 2026-04-23 10:10 | -33.77824 | 149.51058 | 37123 ft | 467 kts | 260° |
| 2026-04-23 10:10 | -33.78139 | 149.47174 | 37479 ft | 467 kts | 260° |
| 2026-04-23 10:10 | -33.78452 | 149.43295 | 37849 ft | 466 kts | 260° |
| 2026-04-23 10:11 | -33.78764 | 149.39421 | 38196 ft | 465 kts | 260° |
| 2026-04-23 10:11 | -33.79075 | 149.35547 | 38409 ft | 468 kts | 260° |
| 2026-04-23 10:11 | -33.79702 | 149.27715 | 38446 ft | 470 kts | 260° |
| 2026-04-23 10:12 | -33.80314 | 149.19941 | 38429 ft | 464 kts | 260° |
| 2026-04-23 10:12 | -33.80918 | 149.12238 | 38435 ft | 462 kts | 260° |
| 2026-04-23 10:13 | -33.81518 | 149.04547 | 38438 ft | 462 kts | 260° |
| 2026-04-23 10:13 | -33.82113 | 148.96858 | 38432 ft | 463 kts | 260° |
| 2026-04-23 10:14 | -33.82705 | 148.89143 | 38425 ft | 464 kts | 260° |
| 2026-04-23 10:14 | -33.83194 | 148.82708 | 38424 ft | 465 kts | 260° |
| 2026-04-23 10:15 | -33.83779 | 148.74945 | 38397 ft | 466 kts | 260° |
| 2026-04-23 10:15 | -33.84343 | 148.67423 | 38416 ft | 467 kts | 259° |
| 2026-04-23 10:16 | -33.85279 | 148.60152 | 38418 ft | 462 kts | 253° |
| 2026-04-23 10:16 | -33.85850 | 148.56776 | 38412 ft | 462 kts | 253° |
| 2026-04-23 10:17 | -33.86263 | 148.54363 | 38407 ft | 462 kts | 253° |
| 2026-04-23 10:17 | -33.86719 | 148.51705 | 38472 ft | 461 kts | 253° |
| 2026-04-23 10:18 | -33.87268 | 148.48486 | 38559 ft | 460 kts | 253° |
| 2026-04-23 10:18 | -33.88036 | 148.43960 | 38520 ft | 461 kts | 253° |
| 2026-04-23 10:19 | -33.88363 | 148.42014 | 38510 ft | 462 kts | 253° |
| 2026-04-23 10:19 | -33.88884 | 148.38884 | 38515 ft | 462 kts | 253° |
| 2026-04-23 10:20 | -33.89457 | 148.35430 | 38360 ft | 465 kts | 253° |
| 2026-04-23 10:20 | -33.89899 | 148.32759 | 38449 ft | 463 kts | 253° |
| 2026-04-23 10:21 | -33.90162 | 148.31158 | 38433 ft | 464 kts | 253° |
| 2026-04-23 10:21 | -33.90495 | 148.29133 | 38368 ft | 465 kts | 253° |
| 2026-04-23 10:22 | -33.91252 | 148.24509 | 38461 ft | 463 kts | 253° |
| 2026-04-23 10:22 | -33.91529 | 148.22812 | 38452 ft | 463 kts | 253° |
| 2026-04-23 10:23 | -33.91973 | 148.20092 | 38442 ft | 463 kts | 253° |
| 2026-04-23 10:23 | -33.92167 | 148.18905 | 38425 ft | 463 kts | 253° |
| 2026-04-23 10:24 | -33.92695 | 148.15665 | 38421 ft | 463 kts | 253° |
| 2026-04-23 10:24 | -33.93324 | 148.11802 | 38439 ft | 462 kts | 253° |
| 2026-04-23 10:25 | -33.93828 | 148.08702 | 38451 ft | 461 kts | 253° |
| 2026-04-23 10:25 | -33.94120 | 148.06906 | 38411 ft | 462 kts | 253° |
| 2026-04-23 10:26 | -33.94686 | 148.03408 | 38424 ft | 461 kts | 253° |
| 2026-04-23 10:26 | -33.95366 | 147.99202 | 38408 ft | 462 kts | 253° |
| 2026-04-23 10:27 | -33.95609 | 147.97702 | 38413 ft | 461 kts | 253° |
| 2026-04-23 10:27 | -33.95972 | 147.95448 | 38414 ft | 461 kts | 253° |
| 2026-04-23 10:28 | -33.96714 | 147.90844 | 38405 ft | 460 kts | 253° |
| 2026-04-23 10:28 | -33.97541 | 147.85706 | 38414 ft | 460 kts | 253° |
| 2026-04-23 10:29 | -33.98207 | 147.81564 | 38406 ft | 460 kts | 253° |
| 2026-04-23 10:29 | -33.98322 | 147.80842 | 38406 ft | 460 kts | 253° |
| 2026-04-23 10:30 | -33.98659 | 147.78730 | 38404 ft | 460 kts | 253° |
| 2026-04-23 10:30 | -33.99866 | 147.71167 | 38403 ft | 459 kts | 253° |
| 2026-04-23 10:31 | -34.01067 | 147.63610 | 38385 ft | 459 kts | 253° |
| 2026-04-23 10:31 | -34.02263 | 147.56054 | 38397 ft | 459 kts | 253° |
| 2026-04-23 10:32 | -34.03453 | 147.48499 | 38400 ft | 459 kts | 253° |
| 2026-04-23 10:32 | -34.07837 | 147.20400 | 38411 ft | 459 kts | 253° |
| 2026-04-23 10:33 | -34.10380 | 147.03888 | 38393 ft | 459 kts | 253° |
| 2026-04-23 10:33 | -34.10963 | 147.00084 | 38544 ft | 462 kts | 253° |
| 2026-04-23 10:33 | -34.11544 | 146.96281 | 38916 ft | 460 kts | 253° |
| 2026-04-23 10:34 | -34.12119 | 146.92499 | 39284 ft | 457 kts | 253° |
| 2026-04-23 10:34 | -34.12689 | 146.88742 | 39630 ft | 454 kts | 253° |
| 2026-04-23 10:34 | -34.13255 | 146.85005 | 39999 ft | 451 kts | 254° |
| 2026-04-23 10:34 | -34.13815 | 146.81300 | 40355 ft | 447 kts | 254° |
| 2026-04-23 10:35 | -34.14941 | 146.73870 | 40399 ft | 451 kts | 254° |
| 2026-04-23 10:35 | -34.16057 | 146.66448 | 40385 ft | 447 kts | 254° |
| 2026-04-23 10:36 | -34.17159 | 146.59086 | 40386 ft | 444 kts | 254° |
| 2026-04-23 10:36 | -34.18252 | 146.51761 | 40389 ft | 443 kts | 254° |
| 2026-04-23 10:37 | -34.19661 | 146.42277 | 40394 ft | 443 kts | 254° |
| 2026-04-23 10:37 | -34.21978 | 146.26558 | 40391 ft | 444 kts | 254° |
| 2026-04-23 10:38 | -34.23055 | 146.19191 | 40389 ft | 446 kts | 254° |
| 2026-04-23 10:38 | -34.24133 | 146.11792 | 40397 ft | 448 kts | 254° |
| 2026-04-23 10:39 | -34.25198 | 146.04366 | 40375 ft | 450 kts | 255° |
| 2026-04-23 10:39 | -34.26141 | 145.96880 | 40388 ft | 451 kts | 256° |
| 2026-04-23 10:40 | -34.27043 | 145.89375 | 40389 ft | 452 kts | 256° |
| 2026-04-23 10:40 | -34.27953 | 145.81858 | 40382 ft | 452 kts | 256° |
| 2026-04-23 10:41 | -34.28868 | 145.74353 | 40370 ft | 451 kts | 256° |
| 2026-04-23 10:41 | -34.29780 | 145.66861 | 40379 ft | 450 kts | 256° |
| 2026-04-23 10:42 | -34.30687 | 145.59378 | 40378 ft | 449 kts | 256° |
| 2026-04-23 10:42 | -34.31588 | 145.51905 | 40361 ft | 449 kts | 256° |
| 2026-04-23 10:43 | -34.32480 | 145.44462 | 40280 ft | 445 kts | 256° |
| 2026-04-23 10:43 | -34.32921 | 145.40762 | 39973 ft | 445 kts | 256° |
| 2026-04-23 10:43 | -34.33364 | 145.37053 | 39603 ft | 447 kts | 256° |
| 2026-04-23 10:44 | -34.33809 | 145.33321 | 39171 ft | 450 kts | 256° |
| 2026-04-23 10:44 | -34.34257 | 145.29554 | 38633 ft | 454 kts | 256° |
| 2026-04-23 10:44 | -34.34706 | 145.25769 | 38393 ft | 457 kts | 256° |
| 2026-04-23 10:44 | -34.35156 | 145.21957 | 38395 ft | 459 kts | 256° |
| 2026-04-23 10:45 | -34.36053 | 145.14297 | 38375 ft | 459 kts | 256° |
| 2026-04-23 10:45 | -34.36942 | 145.06652 | 38372 ft | 458 kts | 256° |
| 2026-04-23 10:46 | -34.37826 | 144.99027 | 38358 ft | 457 kts | 256° |
| 2026-04-23 10:46 | -34.38704 | 144.91415 | 38377 ft | 456 kts | 256° |
| 2026-04-23 10:47 | -34.39578 | 144.83806 | 38374 ft | 456 kts | 256° |
| 2026-04-23 10:47 | -34.40448 | 144.76191 | 38377 ft | 457 kts | 256° |
| 2026-04-23 10:48 | -34.41313 | 144.68567 | 38379 ft | 457 kts | 257° |
| 2026-04-23 10:48 | -34.42175 | 144.60930 | 38378 ft | 458 kts | 257° |
| 2026-04-23 10:49 | -34.43033 | 144.53282 | 38376 ft | 459 kts | 257° |
| 2026-04-23 10:49 | -34.45177 | 144.34006 | 38387 ft | 459 kts | 257° |
| 2026-04-23 10:50 | -34.46018 | 144.26343 | 38373 ft | 459 kts | 257° |
| 2026-04-23 10:50 | -34.46854 | 144.18669 | 38372 ft | 459 kts | 257° |
| 2026-04-23 10:51 | -34.47686 | 144.11002 | 38371 ft | 459 kts | 257° |
| 2026-04-23 10:51 | -34.48513 | 144.03338 | 38372 ft | 458 kts | 257° |
| 2026-04-23 10:52 | -34.49335 | 143.95681 | 38370 ft | 458 kts | 257° |
| 2026-04-23 10:52 | -34.50152 | 143.88024 | 38372 ft | 458 kts | 258° |
| 2026-04-23 10:53 | -34.50965 | 143.80364 | 38373 ft | 458 kts | 258° |
| 2026-04-23 10:53 | -34.51772 | 143.72707 | 38356 ft | 458 kts | 258° |
| 2026-04-23 10:54 | -34.52574 | 143.65053 | 38366 ft | 458 kts | 258° |
| 2026-04-23 10:54 | -34.53371 | 143.57395 | 38377 ft | 458 kts | 258° |
| 2026-04-23 10:55 | -34.54163 | 143.49738 | 38363 ft | 458 kts | 258° |
| 2026-04-23 10:55 | -34.54950 | 143.42083 | 38368 ft | 457 kts | 258° |
| 2026-04-23 10:56 | -34.55732 | 143.34423 | 38373 ft | 457 kts | 258° |
| 2026-04-23 10:56 | -34.56510 | 143.26765 | 38374 ft | 457 kts | 258° |
| 2026-04-23 10:57 | -34.57283 | 143.19106 | 38364 ft | 457 kts | 259° |
| 2026-04-23 10:57 | -34.58051 | 143.11445 | 38369 ft | 457 kts | 259° |
| 2026-04-23 10:58 | -34.58815 | 143.03776 | 38366 ft | 458 kts | 259° |
| 2026-04-23 10:58 | -34.59568 | 142.96162 | 38352 ft | 457 kts | 259° |
| 2026-04-23 10:59 | -34.60322 | 142.88497 | 38362 ft | 457 kts | 259° |
| 2026-04-23 10:59 | -34.61070 | 142.80836 | 38355 ft | 457 kts | 259° |
| 2026-04-23 11:00 | -34.61694 | 142.74410 | 38354 ft | 457 kts | 259° |
| 2026-04-23 11:00 | -34.62433 | 142.66750 | 38356 ft | 457 kts | 259° |
| 2026-04-23 11:01 | -34.63168 | 142.59092 | 38356 ft | 457 kts | 259° |
| 2026-04-23 11:01 | -34.63833 | 142.51422 | 38348 ft | 458 kts | 262° |
| 2026-04-23 11:02 | -34.64256 | 142.43696 | 38348 ft | 458 kts | 263° |
| 2026-04-23 11:02 | -34.64637 | 142.36019 | 38349 ft | 458 kts | 263° |
| 2026-04-23 11:03 | -34.65045 | 142.28305 | 38338 ft | 458 kts | 263° |
| 2026-04-23 11:03 | -34.65467 | 142.20592 | 38346 ft | 457 kts | 263° |
| 2026-04-23 11:04 | -34.65892 | 142.12834 | 38351 ft | 457 kts | 263° |
| 2026-04-23 11:04 | -34.66483 | 142.01891 | 38341 ft | 457 kts | 263° |
| 2026-04-23 11:05 | -34.66897 | 141.94079 | 38348 ft | 456 kts | 263° |
| 2026-04-23 11:05 | -34.67299 | 141.86392 | 38345 ft | 456 kts | 263° |
| 2026-04-23 11:06 | -34.67894 | 141.74860 | 38343 ft | 456 kts | 263° |
| 2026-04-23 11:07 | -34.68284 | 141.67178 | 38348 ft | 455 kts | 263° |
| 2026-04-23 11:07 | -34.68669 | 141.59503 | 38344 ft | 455 kts | 263° |
| 2026-04-23 11:08 | -34.69050 | 141.51825 | 38341 ft | 455 kts | 263° |
| 2026-04-23 11:08 | -34.69428 | 141.44106 | 38356 ft | 462 kts | 263° |
| 2026-04-23 11:09 | -34.69810 | 141.36228 | 38353 ft | 471 kts | 264° |
| 2026-04-23 11:09 | -34.70192 | 141.28223 | 38352 ft | 478 kts | 264° |
| 2026-04-23 11:10 | -34.70572 | 141.20094 | 38341 ft | 484 kts | 264° |
| 2026-04-23 11:10 | -34.70950 | 141.11908 | 38345 ft | 486 kts | 264° |
| 2026-04-23 11:11 | -34.71324 | 141.03689 | 38325 ft | 487 kts | 264° |
| 2026-04-23 11:11 | -34.71693 | 140.95465 | 38336 ft | 487 kts | 264° |
| 2026-04-23 11:12 | -34.72056 | 140.87246 | 38327 ft | 486 kts | 264° |
| 2026-04-23 11:12 | -34.72419 | 140.79059 | 38298 ft | 482 kts | 264° |
| 2026-04-23 11:12 | -34.72796 | 140.75042 | 37791 ft | 474 kts | 257° |
| 2026-04-23 11:13 | -34.73486 | 140.71149 | 37113 ft | 469 kts | 255° |
| 2026-04-23 11:13 | -34.74221 | 140.67296 | 36380 ft | 467 kts | 255° |
| 2026-04-23 11:13 | -34.74954 | 140.63463 | 35703 ft | 464 kts | 255° |
| 2026-04-23 11:13 | -34.75674 | 140.59653 | 35120 ft | 460 kts | 255° |
| 2026-04-23 11:14 | -34.76377 | 140.55880 | 34561 ft | 456 kts | 255° |
| 2026-04-23 11:14 | -34.77068 | 140.52125 | 33990 ft | 453 kts | 255° |
| 2026-04-23 11:14 | -34.77747 | 140.48405 | 33386 ft | 449 kts | 256° |
| 2026-04-23 11:14 | -34.78418 | 140.44706 | 32834 ft | 445 kts | 256° |
| 2026-04-23 11:15 | -34.79081 | 140.41042 | 32288 ft | 442 kts | 256° |
| 2026-04-23 11:15 | -34.79728 | 140.37455 | 31776 ft | 438 kts | 256° |
| 2026-04-23 11:15 | -34.80386 | 140.33801 | 31244 ft | 435 kts | 256° |
| 2026-04-23 11:15 | -34.81031 | 140.30217 | 30710 ft | 432 kts | 256° |
| 2026-04-23 11:16 | -34.81662 | 140.26701 | 30149 ft | 430 kts | 256° |
| 2026-04-23 11:16 | -34.82298 | 140.23157 | 29557 ft | 427 kts | 256° |
| 2026-04-23 11:16 | -34.82935 | 140.19599 | 28997 ft | 423 kts | 256° |
| 2026-04-23 11:16 | -34.83549 | 140.16162 | 28458 ft | 419 kts | 256° |
| 2026-04-23 11:17 | -34.84164 | 140.12713 | 27918 ft | 416 kts | 256° |
| 2026-04-23 11:17 | -34.84784 | 140.09238 | 27363 ft | 413 kts | 256° |
| 2026-04-23 11:17 | -34.85382 | 140.05875 | 26842 ft | 411 kts | 256° |
| 2026-04-23 11:17 | -34.85983 | 140.02487 | 26318 ft | 408 kts | 256° |
| 2026-04-23 11:18 | -34.86580 | 139.99119 | 25826 ft | 406 kts | 256° |
| 2026-04-23 11:18 | -34.87173 | 139.95769 | 25334 ft | 403 kts | 256° |
| 2026-04-23 11:18 | -34.87760 | 139.92447 | 24878 ft | 400 kts | 256° |
| 2026-04-23 11:18 | -34.88342 | 139.89142 | 24417 ft | 398 kts | 256° |
| 2026-04-23 11:19 | -34.88920 | 139.85858 | 23945 ft | 396 kts | 256° |
| 2026-04-23 11:19 | -34.89495 | 139.82590 | 23399 ft | 394 kts | 256° |
| 2026-04-23 11:19 | -34.90066 | 139.79334 | 22889 ft | 392 kts | 257° |
| 2026-04-23 11:19 | -34.90632 | 139.76103 | 22391 ft | 389 kts | 257° |
| 2026-04-23 11:20 | -34.91194 | 139.72889 | 21871 ft | 387 kts | 257° |
| 2026-04-23 11:20 | -34.91753 | 139.69691 | 21383 ft | 385 kts | 257° |
| 2026-04-23 11:20 | -34.92307 | 139.66508 | 20890 ft | 383 kts | 257° |
| 2026-04-23 11:20 | -34.92859 | 139.63336 | 20405 ft | 382 kts | 257° |
| 2026-04-23 11:21 | -34.93407 | 139.60181 | 19936 ft | 380 kts | 257° |
| 2026-04-23 11:21 | -34.93953 | 139.57034 | 19468 ft | 378 kts | 257° |
| 2026-04-23 11:21 | -34.94496 | 139.53902 | 19015 ft | 377 kts | 257° |
| 2026-04-23 11:21 | -34.95035 | 139.50782 | 18548 ft | 376 kts | 257° |
| 2026-04-23 11:22 | -34.95572 | 139.47669 | 18034 ft | 374 kts | 257° |
| 2026-04-23 11:22 | -34.96098 | 139.44620 | 17595 ft | 371 kts | 258° |
| 2026-04-23 11:22 | -34.96626 | 139.41549 | 17125 ft | 369 kts | 258° |
| 2026-04-23 11:22 | -34.97151 | 139.38496 | 16682 ft | 367 kts | 258° |
| 2026-04-23 11:23 | -34.97670 | 139.35467 | 16245 ft | 364 kts | 258° |
| 2026-04-23 11:23 | -34.98187 | 139.32451 | 15790 ft | 363 kts | 258° |
| 2026-04-23 11:23 | -34.98704 | 139.29426 | 14943 ft | 371 kts | 258° |
| 2026-04-23 11:23 | -34.99243 | 139.26269 | 13803 ft | 388 kts | 258° |
| 2026-04-23 11:24 | -34.99800 | 139.22998 | 12841 ft | 397 kts | 258° |
| 2026-04-23 11:24 | -35.00361 | 139.19694 | 12099 ft | 398 kts | 258° |
| 2026-04-23 11:24 | -35.00921 | 139.16397 | 11442 ft | 396 kts | 258° |
| 2026-04-23 11:24 | -35.01477 | 139.13117 | 10828 ft | 394 kts | 258° |
| 2026-04-23 11:25 | -35.02029 | 139.09858 | 10267 ft | 390 kts | 258° |
| 2026-04-23 11:25 | -35.02574 | 139.06633 | 9674 ft | 386 kts | 258° |
| 2026-04-23 11:25 | -35.03114 | 139.03431 | 9008 ft | 385 kts | 258° |
| 2026-04-23 11:25 | -35.03651 | 139.00237 | 8396 ft | 383 kts | 258° |
| 2026-04-23 11:26 | -35.04181 | 138.97086 | 7920 ft | 377 kts | 258° |
| 2026-04-23 11:26 | -35.04706 | 138.93960 | 7340 ft | 375 kts | 258° |
| 2026-04-23 11:26 | -35.05227 | 138.90850 | 6767 ft | 373 kts | 258° |
| 2026-04-23 11:26 | -35.05738 | 138.87797 | 6453 ft | 362 kts | 258° |
| 2026-04-23 11:27 | -35.06243 | 138.84777 | 5755 ft | 365 kts | 258° |
| 2026-04-23 11:27 | -35.06749 | 138.81744 | 5157 ft | 364 kts | 259° |
| 2026-04-23 11:27 | -35.07253 | 138.78715 | 4571 ft | 363 kts | 259° |
| 2026-04-23 11:27 | -35.07752 | 138.75716 | 4099 ft | 358 kts | 259° |
| 2026-04-23 11:28 | -35.08246 | 138.72750 | 3511 ft | 357 kts | 260° |
| 2026-04-23 11:28 | -35.08738 | 138.69786 | 3197 ft | 359 kts | 260° |
| 2026-04-23 11:28 | -35.09231 | 138.66785 | 3038 ft | 359 kts | 261° |
| 2026-04-23 11:28 | -35.09714 | 138.63864 | 3002 ft | 341 kts | 261° |
| 2026-04-23 11:29 | -35.10172 | 138.61098 | 2978 ft | 321 kts | 260° |
| 2026-04-23 11:29 | -35.10586 | 138.58593 | 2955 ft | 282 kts | 261° |
| 2026-04-23 11:29 | -35.10952 | 138.56380 | 2949 ft | 250 kts | 261° |
| 2026-04-23 11:29 | -35.11277 | 138.54414 | 2917 ft | 223 kts | 262° |
| 2026-04-23 11:30 | -35.11572 | 138.52609 | 2949 ft | 214 kts | 262° |
| 2026-04-23 11:30 | -35.11864 | 138.50809 | 2995 ft | 220 kts | 261° |
| 2026-04-23 11:30 | -35.12282 | 138.48989 | 2994 ft | 226 kts | 250° |
| 2026-04-23 11:30 | -35.12927 | 138.47238 | 3007 ft | 226 kts | 246° |
| 2026-04-23 11:31 | -35.13584 | 138.45511 | 2990 ft | 220 kts | 255° |
| 2026-04-23 11:31 | -35.13571 | 138.43743 | 2999 ft | 208 kts | 299° |
| 2026-04-23 11:31 | -35.12682 | 138.42383 | 3049 ft | 207 kts | 324° |
| 2026-04-23 11:31 | -35.11521 | 138.41309 | 3003 ft | 209 kts | 327° |
| 2026-04-23 11:32 | -35.10360 | 138.40272 | 2994 ft | 205 kts | 328° |
| 2026-04-23 11:32 | -35.09214 | 138.39258 | 2980 ft | 201 kts | 328° |
| 2026-04-23 11:32 | -35.08083 | 138.38259 | 2993 ft | 203 kts | 329° |
| 2026-04-23 11:32 | -35.06814 | 138.37585 | 2982 ft | 200 kts | 358° |
| 2026-04-23 11:33 | -35.05501 | 138.37952 | 3002 ft | 194 kts | 31° |
| 2026-04-23 11:33 | -35.04500 | 138.39045 | 3004 ft | 196 kts | 48° |
| 2026-04-23 11:33 | -35.03620 | 138.40325 | 3007 ft | 197 kts | 49° |
| 2026-04-23 11:33 | -35.02766 | 138.41588 | 3016 ft | 185 kts | 49° |
| 2026-04-23 11:34 | -35.02011 | 138.42704 | 2940 ft | 157 kts | 49° |
| 2026-04-23 11:34 | -35.01362 | 138.43660 | 2631 ft | 139 kts | 49° |
| 2026-04-23 11:34 | -35.00775 | 138.44525 | 2185 ft | 131 kts | 48° |
| 2026-04-23 11:34 | -35.00192 | 138.45379 | 2056 ft | 135 kts | 49° |
| 2026-04-23 11:35 | -34.99589 | 138.46263 | 2016 ft | 134 kts | 49° |
| 2026-04-23 11:35 | -34.98976 | 138.47154 | 1606 ft | 140 kts | 50° |
| 2026-04-23 11:35 | -34.98354 | 138.48064 | 1125 ft | 137 kts | 51° |
| 2026-04-23 11:35 | -34.97738 | 138.48947 | 764 ft | 139 kts | 50° |
| 2026-04-23 11:36 | -34.97125 | 138.49850 | 476 ft | 139 kts | 50° |
| 2026-04-23 11:36 | -34.96519 | 138.50749 | 306 ft | 136 kts | 50° |
| 2026-04-23 11:36 | -34.95924 | 138.51623 | 124 ft | 133 kts | 49° |
| 2026-04-23 11:36 | -34.95321 | 138.52494 | 29 ft | 126 kts | 49° |
| 2026-04-23 11:37 | -34.94826 | 138.53208 | 28 ft | 90 kts | 49° |
| 2026-04-23 11:37 | -34.94528 | 138.53650 | 27 ft | 45 kts | 51° |
| 2026-04-23 11:37 | -34.94401 | 138.53836 | 28 ft | 24 kts | 50° |
| 2026-04-23 11:37 | -34.94293 | 138.53991 | 31 ft | 24 kts | 45° |
| 2026-04-23 11:38 | -34.94158 | 138.53985 | 29 ft | 18 kts | 322° |
| 2026-04-23 11:38 | -34.94089 | 138.53919 | 30 ft | 10 kts | 321° |
| 2026-04-23 11:38 | -34.94049 | 138.53892 | 29 ft | 0 kts | 347° |
| 2026-04-23 11:38 | -34.94044 | 138.53891 | 30 ft | 1 kts | 352° |
| 2026-04-23 11:39 | -34.94034 | 138.53892 | 30 ft | 2 kts | 360° |
| 2026-04-23 11:39 | -34.94023 | 138.53891 | 30 ft | 2 kts | 359° |
| 2026-04-23 11:39 | -34.94008 | 138.53890 | 30 ft | 4 kts | 353° |
| 2026-04-23 11:39 | -34.93959 | 138.53852 | 32 ft | 5 kts | 320° |
| 2026-04-23 11:40 | -34.93940 | 138.53833 | 32 ft | 0 kts | 320° |
| 2026-04-23 11:40 | -34.93935 | 138.53828 | 32 ft | 0 kts | 320° |